![]() |
EMODnet Physics ERDDAP
Easier access to scientific data |
log in|
Brought to you by EMODnet Physics |
| Dataset Title: | NDBC - Collection of dew point temperature (DEWT) TimeSeries - IN SITU MultiPointTimeSeriesObservation
|
| Institution: | NDBC (Dataset ID: TS_DEWT_NDBC) |
| Information: | Summary
| License
| FGDC
| ISO 19115
| Metadata
| Background
| Subset
| Data Access Form
| Make a graph
|
| Name | Last modified | Size | Description | |
|---|---|---|---|---|
| Parent Directory | - | - | ||
| GEXA2_TS_DEWT_012021.nc | 27-Oct-2024 10:26 | 429690 | ||
| GEXA2_TS_DEWT_012022.nc | 27-Oct-2024 10:26 | 429684 | ||
| GEXA2_TS_DEWT_012023.nc | 27-Oct-2024 10:26 | 429682 | ||
| GEXA2_TS_DEWT_012024.nc | 27-Oct-2024 10:26 | 429689 | ||
| GEXA2_TS_DEWT_012025.nc | 07-Feb-2025 11:46 | 450436 | ||
| GEXA2_TS_DEWT_012026.nc | 03-Feb-2026 05:10 | 429684 | ||
| GEXA2_TS_DEWT_022021.nc | 27-Oct-2024 10:26 | 429689 | ||
| GEXA2_TS_DEWT_022022.nc | 27-Oct-2024 10:26 | 429690 | ||
| GEXA2_TS_DEWT_022024.nc | 16-Sep-2024 16:51 | 429907 | ||
| GEXA2_TS_DEWT_022025.nc | 01-Mar-2025 06:11 | 429910 | ||
| GEXA2_TS_DEWT_022026.nc | 01-Mar-2026 07:16 | 429904 | ||
| GEXA2_TS_DEWT_032021.nc | 27-Oct-2024 10:26 | 450939 | ||
| GEXA2_TS_DEWT_032022.nc | 27-Oct-2024 10:26 | 451845 | ||
| GEXA2_TS_DEWT_032023.nc | 27-Oct-2024 10:26 | 450416 | ||
| GEXA2_TS_DEWT_032025.nc | 02-Apr-2025 04:55 | 429909 | ||
| GEXA2_TS_DEWT_032026.nc | 22-Mar-2026 10:02 | 451164 | ||
| GEXA2_TS_DEWT_042020.nc | 27-Oct-2024 10:26 | 450022 | ||
| GEXA2_TS_DEWT_042021.nc | 27-Oct-2024 10:26 | 450136 | ||
| GEXA2_TS_DEWT_042022.nc | 27-Oct-2024 10:26 | 451454 | ||
| GEXA2_TS_DEWT_042023.nc | 27-Oct-2024 10:26 | 449565 | ||
| GEXA2_TS_DEWT_042025.nc | 01-May-2025 05:18 | 1262806 | ||
| GEXA2_TS_DEWT_052020.nc | 27-Oct-2024 10:26 | 1143151 | ||
| GEXA2_TS_DEWT_052021.nc | 27-Oct-2024 10:27 | 1258057 | ||
| GEXA2_TS_DEWT_052023.nc | 27-Oct-2024 10:27 | 1264416 | ||
| GEXA2_TS_DEWT_052025.nc | 01-Jun-2025 05:16 | 1266065 | ||
| GEXA2_TS_DEWT_062020.nc | 27-Oct-2024 10:27 | 1263855 | ||
| GEXA2_TS_DEWT_062021.nc | 27-Oct-2024 10:27 | 1263219 | ||
| GEXA2_TS_DEWT_062022.nc | 27-Oct-2024 10:27 | 4722165 | ||
| GEXA2_TS_DEWT_062023.nc | 27-Oct-2024 10:27 | 3332470 | ||
| GEXA2_TS_DEWT_062025.nc | 17-Jun-2025 04:28 | 428664 | ||
| GEXA2_TS_DEWT_072020.nc | 27-Oct-2024 10:27 | 425559 | ||
| GEXA2_TS_DEWT_072021.nc | 27-Oct-2024 10:27 | 428673 | ||
| GEXA2_TS_DEWT_072022.nc | 27-Oct-2024 10:27 | 428663 | ||
| GEXA2_TS_DEWT_072023.nc | 27-Oct-2024 10:27 | 428684 | ||
| GEXA2_TS_DEWT_072025.nc | 16-Aug-2025 07:28 | 429035 | ||
| GEXA2_TS_DEWT_082021.nc | 27-Oct-2024 10:27 | 428689 | ||
| GEXA2_TS_DEWT_082022.nc | 27-Oct-2024 10:27 | 424789 | ||
| GEXA2_TS_DEWT_082023.nc | 27-Oct-2024 10:28 | 429024 | ||
| GEXA2_TS_DEWT_082025.nc | 01-Sep-2025 07:42 | 428615 | ||
| GEXA2_TS_DEWT_092020.nc | 27-Oct-2024 10:28 | 428413 | ||
| GEXA2_TS_DEWT_092021.nc | 27-Oct-2024 10:28 | 428628 | ||
| GEXA2_TS_DEWT_092022.nc | 27-Oct-2024 10:28 | 429034 | ||
| GEXA2_TS_DEWT_092023.nc | 27-Oct-2024 10:28 | 428686 | ||
| GEXA2_TS_DEWT_092025.nc | 01-Oct-2025 07:47 | 428688 | ||
| GEXA2_TS_DEWT_102020.nc | 27-Oct-2024 10:28 | 428686 | ||
| GEXA2_TS_DEWT_102021.nc | 27-Oct-2024 10:28 | 449264 | ||
| GEXA2_TS_DEWT_102022.nc | 27-Oct-2024 10:28 | 428689 | ||
| GEXA2_TS_DEWT_102023.nc | 27-Oct-2024 10:28 | 428571 | ||
| GEXA2_TS_DEWT_102025.nc | 01-Nov-2025 07:09 | 428685 | ||
| GEXA2_TS_DEWT_112020.nc | 27-Oct-2024 10:28 | 429222 | ||
| GEXA2_TS_DEWT_112021.nc | 27-Oct-2024 10:28 | 428881 | ||
| GEXA2_TS_DEWT_112022.nc | 27-Oct-2024 10:28 | 428882 | ||
| GEXA2_TS_DEWT_112023.nc | 27-Oct-2024 10:28 | 428878 | ||
| GEXA2_TS_DEWT_112024.nc | 17-Jan-2025 18:22 | 448554 | ||
| GEXA2_TS_DEWT_112025.nc | 01-Dec-2025 04:30 | 448038 | ||
| GEXA2_TS_DEWT_122020.nc | 27-Oct-2024 10:28 | 446753 | ||
| GEXA2_TS_DEWT_122021.nc | 27-Oct-2024 10:28 | 428880 | ||
| GEXA2_TS_DEWT_122022.nc | 27-Oct-2024 10:28 | 447674 | ||
| GEXA2_TS_DEWT_122023.nc | 27-Oct-2024 10:28 | 447378 | ||
| GEXA2_TS_DEWT_122024.nc | 22-Jan-2025 18:43 | 447400 | ||
| GEXA2_TS_DEWT_122025.nc | 01-Jan-2026 05:49 | 447822 | ||